sensor_id;sensor_type;location;lat;lon;timestamp;pressure;altitude;pressure_sealevel;temperature;humidity
33554;BME280;19885;42.208;24.952;2022-12-17T00:02:39;99942.16;;;10.42;100.00
33554;BME280;19885;42.208;24.952;2022-12-17T00:05:23;99937.03;;;10.54;100.00
33554;BME280;19885;42.208;24.952;2022-12-17T00:08:07;99885.59;;;10.29;100.00
33554;BME280;19885;42.208;24.952;2022-12-17T00:10:51;99931.91;;;10.66;99.87
33554;BME280;19885;42.208;24.952;2022-12-17T00:13:35;99880.34;;;10.22;100.00
33554;BME280;19885;42.208;24.952;2022-12-17T00:16:19;99938.84;;;10.63;100.00
33554;BME280;19885;42.208;24.952;2022-12-17T00:19:03;99940.56;;;10.65;99.67
33554;BME280;19885;42.208;24.952;2022-12-17T00:21:47;99885.66;;;10.35;99.75
33554;BME280;19885;42.208;24.952;2022-12-17T00:24:31;99934.44;;;10.56;99.75
33554;BME280;19885;42.208;24.952;2022-12-17T00:27:15;99937.91;;;10.56;100.00
33554;BME280;19885;42.208;24.952;2022-12-17T00:29:58;99941.38;;;10.54;99.86
33554;BME280;19885;42.208;24.952;2022-12-17T00:32:42;99943.06;;;10.49;100.00
33554;BME280;19885;42.208;24.952;2022-12-17T00:35:28;99946.53;;;10.48;100.00
33554;BME280;19885;42.208;24.952;2022-12-17T00:38:18;99941.38;;;10.55;100.00
33554;BME280;19885;42.208;24.952;2022-12-17T00:41:03;99933.47;;;10.43;100.00
33554;BME280;19885;42.208;24.952;2022-12-17T00:43:47;99960.41;;;10.44;100.00
33554;BME280;19885;42.208;24.952;2022-12-17T00:46:31;99934.44;;;10.56;100.00
33554;BME280;19885;42.208;24.952;2022-12-17T00:49:14;99943.16;;;10.61;100.00
33554;BME280;19885;42.208;24.952;2022-12-17T00:51:59;99930.97;;;10.57;100.00
33554;BME280;19885;42.208;24.952;2022-12-17T00:54:43;99944.97;;;10.71;99.36
33554;BME280;19885;42.208;24.952;2022-12-17T00:57:27;99922.31;;;10.61;99.56
33554;BME280;19885;42.208;24.952;2022-12-17T01:00:11;99934.56;;;10.69;99.48
33554;BME280;19885;42.208;24.952;2022-12-17T01:03:07;99937.19;;;10.77;99.32
33554;BME280;19885;42.208;24.952;2022-12-17T01:05:52;99929.38;;;10.74;99.33
33554;BME280;19885;42.208;24.952;2022-12-17T01:08:36;99924.94;;;10.64;99.32
33554;BME280;19885;42.208;24.952;2022-12-17T01:11:19;99910.16;;;10.61;99.98
33554;BME280;19885;42.208;24.952;2022-12-17T01:14:03;99840.38;;;10.18;99.47
33554;BME280;19885;42.208;24.952;2022-12-17T01:16:47;99915.47;;;10.72;99.14
33554;BME280;19885;42.208;24.952;2022-12-17T01:19:31;99927.50;;;10.61;100.00
33554;BME280;19885;42.208;24.952;2022-12-17T01:22:15;99911.94;;;10.67;99.91
33554;BME280;19885;42.208;24.952;2022-12-17T01:24:59;99918.94;;;10.74;99.32
33554;BME280;19885;42.208;24.952;2022-12-17T01:27:47;99896.25;;;10.61;99.37
33554;BME280;19885;42.208;24.952;2022-12-17T01:30:31;99885.84;;;10.64;99.55
33554;BME280;19885;42.208;24.952;2022-12-17T01:33:15;99897.22;;;10.75;99.66
33554;BME280;19885;42.208;24.952;2022-12-17T01:35:59;99912.00;;;10.77;99.25
33554;BME280;19885;42.208;24.952;2022-12-17T01:38:43;99897.22;;;10.72;99.36
33554;BME280;19885;42.208;24.952;2022-12-17T01:41:27;99910.28;;;10.78;99.73
33554;BME280;19885;42.208;24.952;2022-12-17T01:47:55;99906.81;;;10.82;99.15
33554;BME280;19885;42.208;24.952;2022-12-17T01:50:43;99890.34;;;10.83;98.15
33554;BME280;19885;42.208;24.952;2022-12-17T01:53:33;99877.25;;;10.74;98.09
33554;BME280;19885;42.208;24.952;2022-12-17T01:56:19;99892.94;;;10.86;97.73
33554;BME280;19885;42.208;24.952;2022-12-17T01:59:04;99881.63;;;10.81;98.14
33554;BME280;19885;42.208;24.952;2022-12-17T02:01:50;99889.44;;;10.84;98.22
33554;BME280;19885;42.208;24.952;2022-12-17T02:04:34;99887.72;;;10.85;98.44
33554;BME280;19885;42.208;24.952;2022-12-17T02:10:45;99827.56;;;10.47;98.24
33554;BME280;19885;42.208;24.952;2022-12-17T02:13:38;99871.19;;;10.78;97.91
33554;BME280;19885;42.208;24.952;2022-12-17T02:16:32;99882.50;;;10.85;98.12
33554;BME280;19885;42.208;24.952;2022-12-17T02:22:11;99868.56;;;10.77;98.21
33554;BME280;19885;42.208;24.952;2022-12-17T02:25:08;99879.91;;;10.83;97.84
33554;BME280;19885;42.208;24.952;2022-12-17T02:27:54;99870.28;;;10.79;98.25
33554;BME280;19885;42.208;24.952;2022-12-17T02:30:39;99892.81;;;10.68;98.64
33554;BME280;19885;42.208;24.952;2022-12-17T02:33:24;99871.16;;;10.72;99.20
33554;BME280;19885;42.208;24.952;2022-12-17T02:36:08;99878.09;;;10.71;99.70
33554;BME280;19885;42.208;24.952;2022-12-17T02:38:52;99880.66;;;10.68;99.04
33554;BME280;19885;42.208;24.952;2022-12-17T02:41:45;99889.41;;;10.75;98.45
33554;BME280;19885;42.208;24.952;2022-12-17T02:44:33;99873.75;;;10.72;98.34
33554;BME280;19885;42.208;24.952;2022-12-17T02:47:19;99881.47;;;10.57;99.65
33554;BME280;19885;42.208;24.952;2022-12-17T02:50:05;99882.38;;;10.62;99.26
33554;BME280;19885;42.208;24.952;2022-12-17T02:52:50;99892.91;;;10.80;99.04
33554;BME280;19885;42.208;24.952;2022-12-17T02:55:34;99874.63;;;10.74;98.29
33554;BME280;19885;42.208;24.952;2022-12-17T02:58:19;99830.19;;;10.51;98.47
33554;BME280;19885;42.208;24.952;2022-12-17T03:01:03;99883.28;;;10.70;99.21
33554;BME280;19885;42.208;24.952;2022-12-17T03:03:48;99852.81;;;10.60;99.54
33554;BME280;19885;42.208;24.952;2022-12-17T03:06:32;99890.19;;;10.60;100.00
33554;BME280;19885;42.208;24.952;2022-12-17T03:09:16;99879.81;;;10.71;99.50
33554;BME280;19885;42.208;24.952;2022-12-17T03:11:59;99891.88;;;10.57;100.00
33554;BME280;19885;42.208;24.952;2022-12-17T03:14:43;99894.53;;;10.58;100.00
33554;BME280;19885;42.208;24.952;2022-12-17T03:17:28;99885.66;;;10.38;100.00
33554;BME280;19885;42.208;24.952;2022-12-17T03:20:12;99897.75;;;10.30;100.00
33554;BME280;19885;42.208;24.952;2022-12-17T03:23:01;99886.56;;;10.40;100.00
33554;BME280;19885;42.208;24.952;2022-12-17T03:25:46;99880.44;;;10.38;100.00
33554;BME280;19885;42.208;24.952;2022-12-17T03:28:30;99890.03;;;10.41;100.00
33554;BME280;19885;42.208;24.952;2022-12-17T03:31:13;99814.19;;;10.01;100.00
33554;BME280;19885;42.208;24.952;2022-12-17T03:33:57;99873.56;;;10.48;100.00
33554;BME280;19885;42.208;24.952;2022-12-17T03:36:41;99877.91;;;10.46;100.00
33554;BME280;19885;42.208;24.952;2022-12-17T03:39:25;99825.63;;;10.20;100.00
33554;BME280;19885;42.208;24.952;2022-12-17T03:42:09;99883.13;;;10.44;100.00
33554;BME280;19885;42.208;24.952;2022-12-17T03:44:53;99859.50;;;10.25;100.00
33554;BME280;19885;42.208;24.952;2022-12-17T03:47:37;99864.72;;;10.25;100.00
33554;BME280;19885;42.208;24.952;2022-12-17T03:50:21;99866.56;;;10.38;100.00
33554;BME280;19885;42.208;24.952;2022-12-17T03:53:05;99871.72;;;10.32;100.00
33554;BME280;19885;42.208;24.952;2022-12-17T03:55:49;99865.38;;;10.04;100.00
33554;BME280;19885;42.208;24.952;2022-12-17T03:58:33;99875.16;;;10.28;100.00
33554;BME280;19885;42.208;24.952;2022-12-17T04:01:17;99782.72;;;9.77;100.00
33554;BME280;19885;42.208;24.952;2022-12-17T04:04:01;99876.94;;;10.29;100.00
33554;BME280;19885;42.208;24.952;2022-12-17T04:06:52;99847.38;;;10.27;100.00
33554;BME280;19885;42.208;24.952;2022-12-17T04:09:36;99839.47;;;10.16;100.00
33554;BME280;19885;42.208;24.952;2022-12-17T04:12:20;99857.66;;;10.12;100.00
33554;BME280;19885;42.208;24.952;2022-12-17T04:15:05;99852.31;;;9.99;100.00
33554;BME280;19885;42.208;24.952;2022-12-17T04:17:49;99834.19;;;10.10;100.00
33554;BME280;19885;42.208;24.952;2022-12-17T04:20:33;99829.91;;;10.14;100.00
33554;BME280;19885;42.208;24.952;2022-12-17T04:23:17;99824.28;;;9.65;100.00
33554;BME280;19885;42.208;24.952;2022-12-17T04:26:01;99750.41;;;9.50;100.00
33554;BME280;19885;42.208;24.952;2022-12-17T04:28:45;99826.22;;;9.87;100.00
33554;BME280;19885;42.208;24.952;2022-12-17T04:31:29;99824.41;;;9.79;100.00
33554;BME280;19885;42.208;24.952;2022-12-17T04:34:13;99821.06;;;9.96;100.00
33554;BME280;19885;42.208;24.952;2022-12-17T04:36:57;99824.75;;;10.15;100.00
33554;BME280;19885;42.208;24.952;2022-12-17T04:39:40;99798.50;;;9.95;100.00
33554;BME280;19885;42.208;24.952;2022-12-17T04:42:24;99795.69;;;9.70;100.00
33554;BME280;19885;42.208;24.952;2022-12-17T04:45:08;99803.41;;;9.62;100.00
33554;BME280;19885;42.208;24.952;2022-12-17T04:48:06;99825.44;;;10.00;100.00
33554;BME280;19885;42.208;24.952;2022-12-17T04:50:51;99818.56;;;10.08;100.00
33554;BME280;19885;42.208;24.952;2022-12-17T04:53:35;99822.03;;;10.09;100.00
33554;BME280;19885;42.208;24.952;2022-12-17T04:56:19;99810.03;;;10.23;100.00
33554;BME280;19885;42.208;24.952;2022-12-17T04:59:03;99814.28;;;10.12;100.00
33554;BME280;19885;42.208;24.952;2022-12-17T05:01:47;99798.41;;;9.86;100.00
33554;BME280;19885;42.208;24.952;2022-12-17T05:04:34;99803.88;;;10.14;100.00
33554;BME280;19885;42.208;24.952;2022-12-17T05:07:19;99798.72;;;10.23;100.00
33554;BME280;19885;42.208;24.952;2022-12-17T05:10:03;99833.53;;;10.31;100.00
33554;BME280;19885;42.208;24.952;2022-12-17T05:12:55;99810.97;;;10.34;100.00
33554;BME280;19885;42.208;24.952;2022-12-17T05:15:44;99836.88;;;10.18;100.00
33554;BME280;19885;42.208;24.952;2022-12-17T05:18:28;99814.41;;;10.29;100.00
33554;BME280;19885;42.208;24.952;2022-12-17T05:21:12;99836.94;;;10.24;100.00
33554;BME280;19885;42.208;24.952;2022-12-17T05:23:56;99831.69;;;10.22;100.00
33554;BME280;19885;42.208;24.952;2022-12-17T05:26:40;99839.59;;;10.30;100.00
33554;BME280;19885;42.208;24.952;2022-12-17T05:29:24;99836.94;;;10.27;100.00
33554;BME280;19885;42.208;24.952;2022-12-17T05:32:08;99840.44;;;10.26;100.00
33554;BME280;19885;42.208;24.952;2022-12-17T05:34:52;99755.84;;;9.77;100.00
33554;BME280;19885;42.208;24.952;2022-12-17T05:37:36;99871.44;;;10.01;100.00
33554;BME280;19885;42.208;24.952;2022-12-17T05:40:20;99855.97;;;10.15;100.00
33554;BME280;19885;42.208;24.952;2022-12-17T05:43:05;99861.97;;;10.10;100.00
33554;BME280;19885;42.208;24.952;2022-12-17T05:45:50;99846.41;;;10.14;100.00
33554;BME280;19885;42.208;24.952;2022-12-17T05:48:35;99869.56;;;9.85;100.00
33554;BME280;19885;42.208;24.952;2022-12-17T05:51:20;99852.28;;;9.93;100.00
33554;BME280;19885;42.208;24.952;2022-12-17T05:54:05;99871.19;;;9.74;100.00
33554;BME280;19885;42.208;24.952;2022-12-17T05:56:49;99869.66;;;9.97;100.00
33554;BME280;19885;42.208;24.952;2022-12-17T05:59:33;99878.44;;;10.08;100.00
33554;BME280;19885;42.208;24.952;2022-12-17T06:02:17;99807.94;;;9.83;100.00
33554;BME280;19885;42.208;24.952;2022-12-17T06:05:01;99875.81;;;10.05;100.00
33554;BME280;19885;42.208;24.952;2022-12-17T06:07:45;99887.16;;;10.11;100.00
33554;BME280;19885;42.208;24.952;2022-12-17T06:10:29;99862.00;;;10.11;100.00
33554;BME280;19885;42.208;24.952;2022-12-17T06:13:12;99892.44;;;10.17;100.00
33554;BME280;19885;42.208;24.952;2022-12-17T06:15:57;99870.81;;;10.24;100.00
33554;BME280;19885;42.208;24.952;2022-12-17T06:18:43;99877.47;;;9.94;100.00
33554;BME280;19885;42.208;24.952;2022-12-17T06:21:27;99861.97;;;10.08;100.00
33554;BME280;19885;42.208;24.952;2022-12-17T06:24:11;99857.44;;;9.87;100.00
33554;BME280;19885;42.208;24.952;2022-12-17T06:26:55;99805.25;;;9.74;100.00
33554;BME280;19885;42.208;24.952;2022-12-17T06:29:39;99854.97;;;10.02;100.00
33554;BME280;19885;42.208;24.952;2022-12-17T06:32:23;99872.44;;;10.13;100.00
33554;BME280;19885;42.208;24.952;2022-12-17T06:35:07;99927.38;;;10.40;100.00
33554;BME280;19885;42.208;24.952;2022-12-17T06:38:03;99929.94;;;10.37;100.00
33554;BME280;19885;42.208;24.952;2022-12-17T06:40:47;99907.22;;;10.21;100.00
33554;BME280;19885;42.208;24.952;2022-12-17T06:43:31;99906.47;;;10.31;100.00
33554;BME280;19885;42.208;24.952;2022-12-17T06:46:15;99936.88;;;10.35;100.00
33554;BME280;19885;42.208;24.952;2022-12-17T06:48:59;99918.59;;;10.29;100.00
33554;BME280;19885;42.208;24.952;2022-12-17T06:51:43;99845.19;;;9.77;100.00
33554;BME280;19885;42.208;24.952;2022-12-17T06:54:34;99894.16;;;10.15;100.00
33554;BME280;19885;42.208;24.952;2022-12-17T06:57:18;99900.00;;;9.95;100.00
33554;BME280;19885;42.208;24.952;2022-12-17T07:00:04;99898.28;;;9.94;100.00
33554;BME280;19885;42.208;24.952;2022-12-17T07:02:48;99912.69;;;9.62;100.00
33554;BME280;19885;42.208;24.952;2022-12-17T07:05:42;99894.72;;;9.83;100.00
33554;BME280;19885;42.208;24.952;2022-12-17T07:08:27;99855.16;;;9.35;100.00
33554;BME280;19885;42.208;24.952;2022-12-17T07:11:11;99925.28;;;10.08;100.00
33554;BME280;19885;42.208;24.952;2022-12-17T07:13:55;99886.03;;;9.83;100.00
33554;BME280;19885;42.208;24.952;2022-12-17T07:16:39;99911.50;;;10.14;100.00
33554;BME280;19885;42.208;24.952;2022-12-17T07:19:23;99898.28;;;9.97;100.00
33554;BME280;19885;42.208;24.952;2022-12-17T07:22:06;99900.75;;;9.82;100.00
33554;BME280;19885;42.208;24.952;2022-12-17T07:24:50;99897.44;;;9.98;100.00
33554;BME280;19885;42.208;24.952;2022-12-17T07:27:34;99808.56;;;9.56;100.00
33554;BME280;19885;42.208;24.952;2022-12-17T07:30:18;99838.13;;;9.63;100.00
33554;BME280;19885;42.208;24.952;2022-12-17T07:33:04;99914.00;;;10.06;100.00
33554;BME280;19885;42.208;24.952;2022-12-17T07:35:50;99907.03;;;10.02;100.00
33554;BME280;19885;42.208;24.952;2022-12-17T07:38:34;99962.22;;;9.70;100.00
33554;BME280;19885;42.208;24.952;2022-12-17T07:41:18;99867.03;;;9.94;100.00
33554;BME280;19885;42.208;24.952;2022-12-17T07:44:02;99988.97;;;9.58;100.00
33554;BME280;19885;42.208;24.952;2022-12-17T07:46:46;99812.47;;;9.18;100.00
33554;BME280;19885;42.208;24.952;2022-12-17T07:49:30;99850.19;;;9.59;100.00
33554;BME280;19885;42.208;24.952;2022-12-17T07:52:14;99982.03;;;9.60;100.00
33554;BME280;19885;42.208;24.952;2022-12-17T07:54:58;99754.41;;;9.16;100.00
33554;BME280;19885;42.208;24.952;2022-12-17T07:57:42;99970.97;;;9.12;100.00
33554;BME280;19885;42.208;24.952;2022-12-17T08:00:26;99920.50;;;9.64;100.00
33554;BME280;19885;42.208;24.952;2022-12-17T08:03:10;99904.78;;;9.52;100.00
33554;BME280;19885;42.208;24.952;2022-12-17T08:05:57;99976.06;;;9.67;100.00
33554;BME280;19885;42.208;24.952;2022-12-17T08:08:42;99936.41;;;9.88;100.00
33554;BME280;19885;42.208;24.952;2022-12-17T08:11:26;99992.84;;;9.93;100.00
33554;BME280;19885;42.208;24.952;2022-12-17T08:14:10;99946.91;;;9.97;100.00
33554;BME280;19885;42.208;24.952;2022-12-17T08:16:56;99978.13;;;9.97;100.00
33554;BME280;19885;42.208;24.952;2022-12-17T08:19:40;99944.34;;;10.01;100.00
33554;BME280;19885;42.208;24.952;2022-12-17T08:22:24;99959.09;;;10.01;100.00
33554;BME280;19885;42.208;24.952;2022-12-17T08:25:08;99952.19;;;10.06;100.00
33554;BME280;19885;42.208;24.952;2022-12-17T08:27:59;99963.34;;;9.94;100.00
33554;BME280;19885;42.208;24.952;2022-12-17T08:30:48;99889.38;;;9.70;100.00
33554;BME280;19885;42.208;24.952;2022-12-17T08:33:32;100007.91;;;10.19;100.00
33554;BME280;19885;42.208;24.952;2022-12-17T08:36:17;99827.47;;;9.40;100.00
33554;BME280;19885;42.208;24.952;2022-12-17T08:39:00;100019.09;;;10.12;100.00
33554;BME280;19885;42.208;24.952;2022-12-17T08:41:44;99982.81;;;10.28;100.00
33554;BME280;19885;42.208;24.952;2022-12-17T08:44:28;99994.09;;;10.27;100.00
33554;BME280;19885;42.208;24.952;2022-12-17T08:47:12;99987.06;;;10.20;100.00
33554;BME280;19885;42.208;24.952;2022-12-17T08:49:56;99965.53;;;10.35;100.00
33554;BME280;19885;42.208;24.952;2022-12-17T08:52:40;99958.38;;;10.13;100.00
33554;BME280;19885;42.208;24.952;2022-12-17T08:55:24;99975.22;;;10.51;100.00
33554;BME280;19885;42.208;24.952;2022-12-17T08:58:08;99972.72;;;10.66;100.00
33554;BME280;19885;42.208;24.952;2022-12-17T09:00:52;99952.78;;;10.72;100.00
33554;BME280;19885;42.208;24.952;2022-12-17T09:03:35;99952.91;;;10.83;100.00
33554;BME280;19885;42.208;24.952;2022-12-17T09:06:19;99904.16;;;10.73;100.00
33554;BME280;19885;42.208;24.952;2022-12-17T09:09:03;99958.25;;;11.06;100.00
33554;BME280;19885;42.208;24.952;2022-12-17T09:11:47;99973.03;;;11.05;100.00
33554;BME280;19885;42.208;24.952;2022-12-17T09:14:31;99987.84;;;11.14;100.00
33554;BME280;19885;42.208;24.952;2022-12-17T09:17:15;99973.09;;;11.14;100.00
33554;BME280;19885;42.208;24.952;2022-12-17T09:19:59;99892.75;;;10.59;100.00
33554;BME280;19885;42.208;24.952;2022-12-17T09:22:43;99981.75;;;11.13;100.00
33554;BME280;19885;42.208;24.952;2022-12-17T09:25:27;99900.59;;;10.62;100.00
33554;BME280;19885;42.208;24.952;2022-12-17T09:28:11;99973.84;;;10.97;100.00
33554;BME280;19885;42.208;24.952;2022-12-17T09:30:59;99979.97;;;11.06;100.00
33554;BME280;19885;42.208;24.952;2022-12-17T09:33:43;99985.19;;;11.03;100.00
33554;BME280;19885;42.208;24.952;2022-12-17T09:36:27;99971.25;;;10.98;100.00
33554;BME280;19885;42.208;24.952;2022-12-17T09:39:28;100005.22;;;11.13;100.00
33554;BME280;19885;42.208;24.952;2022-12-17T09:42:22;100007.81;;;11.07;100.00
33554;BME280;19885;42.208;24.952;2022-12-17T09:45:12;99985.19;;;11.03;100.00
33554;BME280;19885;42.208;24.952;2022-12-17T09:48:16;99992.19;;;11.10;100.00
33554;BME280;19885;42.208;24.952;2022-12-17T09:51:03;99986.03;;;10.99;100.00
33554;BME280;19885;42.208;24.952;2022-12-17T09:53:50;99986.94;;;11.07;100.00
33554;BME280;19885;42.208;24.952;2022-12-17T09:56:36;99942.53;;;10.94;100.00
33554;BME280;19885;42.208;24.952;2022-12-17T09:59:26;99943.56;;;11.21;100.00
33554;BME280;19885;42.208;24.952;2022-12-17T10:02:17;99944.47;;;11.28;100.00
33554;BME280;19885;42.208;24.952;2022-12-17T10:05:04;99865.94;;;10.75;100.00
33554;BME280;19885;42.208;24.952;2022-12-17T10:07:50;99929.66;;;11.19;100.00
33554;BME280;19885;42.208;24.952;2022-12-17T10:10:42;99939.25;;;11.29;100.00
33554;BME280;19885;42.208;24.952;2022-12-17T10:13:26;99932.19;;;11.09;100.00
33554;BME280;19885;42.208;24.952;2022-12-17T10:16:32;99931.44;;;11.26;100.00
33554;BME280;19885;42.208;24.952;2022-12-17T10:22:13;99899.19;;;11.14;100.00
33554;BME280;19885;42.208;24.952;2022-12-17T10:25:04;99906.22;;;11.31;100.00
33554;BME280;19885;42.208;24.952;2022-12-17T10:27:48;99890.59;;;11.37;100.00
33554;BME280;19885;42.208;24.952;2022-12-17T10:30:32;99895.81;;;11.40;100.00
33554;BME280;19885;42.208;24.952;2022-12-17T10:33:19;99901.09;;;11.51;100.00
33554;BME280;19885;42.208;24.952;2022-12-17T10:36:19;99926.31;;;11.54;100.00
33554;BME280;19885;42.208;24.952;2022-12-17T10:39:04;99921.97;;;11.53;100.00
33554;BME280;19885;42.208;24.952;2022-12-17T10:41:48;99920.16;;;11.35;100.00
33554;BME280;19885;42.208;24.952;2022-12-17T10:44:36;99887.06;;;11.23;100.00
33554;BME280;19885;42.208;24.952;2022-12-17T10:47:25;99896.69;;;11.39;100.00
33554;BME280;19885;42.208;24.952;2022-12-17T10:50:21;99906.09;;;11.09;100.00
33554;BME280;19885;42.208;24.952;2022-12-17T10:53:20;99900.06;;;11.14;100.00
33554;BME280;19885;42.208;24.952;2022-12-17T10:56:05;99912.22;;;11.15;100.00
33554;BME280;19885;42.208;24.952;2022-12-17T10:58:52;99914.06;;;11.40;100.00
33554;BME280;19885;42.208;24.952;2022-12-17T11:01:40;99912.38;;;11.48;100.00
33554;BME280;19885;42.208;24.952;2022-12-17T11:04:30;99905.47;;;11.63;100.00
33554;BME280;19885;42.208;24.952;2022-12-17T11:07:31;99830.50;;;11.13;100.00
33554;BME280;19885;42.208;24.952;2022-12-17T11:10:22;99801.81;;;11.06;100.00
33554;BME280;19885;42.208;24.952;2022-12-17T11:13:27;99888.94;;;11.61;100.00
33554;BME280;19885;42.208;24.952;2022-12-17T11:16:28;99882.84;;;11.65;100.00
33554;BME280;19885;42.208;24.952;2022-12-17T11:22:21;99890.72;;;11.72;100.00
33554;BME280;19885;42.208;24.952;2022-12-17T11:25:21;99905.53;;;11.78;100.00
33554;BME280;19885;42.208;24.952;2022-12-17T11:28:19;99895.94;;;11.71;100.00
33554;BME280;19885;42.208;24.952;2022-12-17T11:31:21;99888.13;;;11.77;100.00
33554;BME280;19885;42.208;24.952;2022-12-17T11:36:59;99901.16;;;11.68;100.00
33554;BME280;19885;42.208;24.952;2022-12-17T11:43:09;99915.97;;;11.78;100.00
33554;BME280;19885;42.208;24.952;2022-12-17T11:55:18;99938.53;;;11.62;100.00
33554;BME280;19885;42.208;24.952;2022-12-17T11:58:15;99948.97;;;11.64;100.00
33554;BME280;19885;42.208;24.952;2022-12-17T12:04:34;99986.28;;;11.40;100.00
33554;BME280;19885;42.208;24.952;2022-12-17T12:10:06;100014.00;;;11.23;100.00
33554;BME280;19885;42.208;24.952;2022-12-17T12:22:32;100014.88;;;11.22;100.00
33554;BME280;19885;42.208;24.952;2022-12-17T12:25:47;100013.19;;;11.34;100.00
33554;BME280;19885;42.208;24.952;2022-12-17T12:34:59;100015.78;;;11.31;100.00
33554;BME280;19885;42.208;24.952;2022-12-17T12:37:46;100015.81;;;11.34;100.00
33554;BME280;19885;42.208;24.952;2022-12-17T12:40:43;100020.19;;;11.41;100.00
33554;BME280;19885;42.208;24.952;2022-12-17T12:43:32;100005.47;;;11.51;100.00
33554;BME280;19885;42.208;24.952;2022-12-17T12:46:28;99930.53;;;11.23;100.00
33554;BME280;19885;42.208;24.952;2022-12-17T12:49:24;99982.03;;;11.66;100.00
33554;BME280;19885;42.208;24.952;2022-12-17T12:52:17;99987.34;;;11.74;100.00
33554;BME280;19885;42.208;24.952;2022-12-17T12:55:03;99980.31;;;11.65;100.00
33554;BME280;19885;42.208;24.952;2022-12-17T13:00:59;99966.44;;;11.74;100.00
33554;BME280;19885;42.208;24.952;2022-12-17T13:06:54;99949.94;;;11.84;100.00
33554;BME280;19885;42.208;24.952;2022-12-17T13:09:32;99979.56;;;11.96;100.00
33554;BME280;19885;42.208;24.952;2022-12-17T13:14:33;100007.41;;;11.97;100.00
33554;BME280;19885;42.208;24.952;2022-12-17T13:17:07;99843.53;;;11.12;100.00
33554;BME280;19885;42.208;24.952;2022-12-17T13:24:50;99989.13;;;11.87;100.00
33554;BME280;19885;42.208;24.952;2022-12-17T13:38:58;99935.09;;;11.72;100.00
33554;BME280;19885;42.208;24.952;2022-12-17T13:41:32;99981.25;;;11.72;100.00
33554;BME280;19885;42.208;24.952;2022-12-17T13:44:14;99979.38;;;11.54;100.00
33554;BME280;19885;42.208;24.952;2022-12-17T13:46:45;99982.91;;;11.67;100.00
33554;BME280;19885;42.208;24.952;2022-12-17T13:49:21;99976.97;;;11.96;100.00
33554;BME280;19885;42.208;24.952;2022-12-17T13:51:47;99929.06;;;11.87;100.00
33554;BME280;19885;42.208;24.952;2022-12-17T13:54:23;99956.97;;;12.06;99.40
33554;BME280;19885;42.208;24.952;2022-12-17T13:56:49;99959.56;;;12.00;99.48
33554;BME280;19885;42.208;24.952;2022-12-17T13:59:18;99968.28;;;11.99;100.00
33554;BME280;19885;42.208;24.952;2022-12-17T14:01:46;99961.25;;;11.90;100.00
33554;BME280;19885;42.208;24.952;2022-12-17T14:04:26;99843.53;;;11.18;100.00
33554;BME280;19885;42.208;24.952;2022-12-17T14:06:55;99963.06;;;12.03;98.59
33554;BME280;19885;42.208;24.952;2022-12-17T14:09:32;99869.75;;;11.42;98.44
33554;BME280;19885;42.208;24.952;2022-12-17T14:12:02;100013.63;;;12.28;98.01
33554;BME280;19885;42.208;24.952;2022-12-17T14:14:50;100014.50;;;12.29;97.55
33554;BME280;19885;42.208;24.952;2022-12-17T14:17:18;99940.38;;;11.87;97.50
33554;BME280;19885;42.208;24.952;2022-12-17T14:19:45;100020.56;;;12.29;97.20
33554;BME280;19885;42.208;24.952;2022-12-17T14:22:21;99987.44;;;12.16;96.99
33554;BME280;19885;42.208;24.952;2022-12-17T14:24:51;99936.91;;;11.90;96.50
33554;BME280;19885;42.208;24.952;2022-12-17T14:27:23;100002.25;;;12.20;96.76
33554;BME280;19885;42.208;24.952;2022-12-17T14:29:50;100021.19;;;11.60;97.36
33554;BME280;19885;42.208;24.952;2022-12-17T14:32:31;100038.28;;;11.16;100.00
33554;BME280;19885;42.208;24.952;2022-12-17T14:34:57;100034.09;;;11.40;100.00
33554;BME280;19885;42.208;24.952;2022-12-17T14:37:26;100046.19;;;11.23;100.00
33554;BME280;19885;42.208;24.952;2022-12-17T14:39:54;99973.00;;;11.01;100.00
33554;BME280;19885;42.208;24.952;2022-12-17T14:42:25;100030.66;;;11.47;99.03
33554;BME280;19885;42.208;24.952;2022-12-17T14:44:59;100044.25;;;10.98;100.00
33554;BME280;19885;42.208;24.952;2022-12-17T14:47:26;100044.91;;;10.74;100.00
33554;BME280;19885;42.208;24.952;2022-12-17T14:50:31;100049.41;;;10.94;100.00
33554;BME280;19885;42.208;24.952;2022-12-17T14:52:59;99927.25;;;10.26;100.00
33554;BME280;19885;42.208;24.952;2022-12-17T14:55:37;100023.34;;;10.95;100.00
33554;BME280;19885;42.208;24.952;2022-12-17T15:00:39;100050.31;;;10.97;100.00
33554;BME280;19885;42.208;24.952;2022-12-17T15:03:10;100025.50;;;10.42;100.00
33554;BME280;19885;42.208;24.952;2022-12-17T15:05:36;100020.28;;;10.41;100.00
33554;BME280;19885;42.208;24.952;2022-12-17T15:08:03;100070.13;;;10.77;100.00
33554;BME280;19885;42.208;24.952;2022-12-17T15:10:29;100062.75;;;10.34;100.00
33554;BME280;19885;42.208;24.952;2022-12-17T15:12:56;100070.63;;;10.40;100.00
33554;BME280;19885;42.208;24.952;2022-12-17T15:15:21;100076.03;;;10.58;100.00
33554;BME280;19885;42.208;24.952;2022-12-17T15:17:49;100102.34;;;10.84;100.00
33554;BME280;19885;42.208;24.952;2022-12-17T15:20:16;100106.78;;;10.94;100.00
33554;BME280;19885;42.208;24.952;2022-12-17T15:22:42;100088.47;;;10.86;100.00
33554;BME280;19885;42.208;24.952;2022-12-17T15:25:11;100073.59;;;10.76;99.62
33554;BME280;19885;42.208;24.952;2022-12-17T15:27:37;100097.16;;;10.88;100.00
33554;BME280;19885;42.208;24.952;2022-12-17T15:30:03;100075.31;;;10.74;100.00
33554;BME280;19885;42.208;24.952;2022-12-17T15:32:29;100090.16;;;10.83;99.92